Pagrindinis puslapis
METAR-TAF:

METAR-TAF

Oro uostai :

Unalakleet, Aliaska, Jungtinės Amerikos Valstijos

platuma: 63-53N, ilguma: 160-48W, Aukštis: 6 m

Dabartinis oras

Ataskaita buvo paskelbta 29 minutes, ne 16:56 UTC
Vėjas 13 kt iš Šiaurės/Šiaurės Vakarų su gūsio iki 16 kt
Temperatūra -27°C
Drėgmė 62%
Slėgis 997 hPa
Matomumas: 16.1 km
Giedras dangus

METAR: PAUN 291656Z AUTO 33013G16KT 10SM CLR M27/M32 A2944 RMK AO2 SLP974 T12721322 FZRANO

Laikas: 08:25 (17:25 UTC)

Prognozė

Ataskaita buvo paskelbta 5 valandos ir 46 minutes, ne 11:39 UTC
Prognozė galioja nuo 29 metu 12 UTC su 30 metu 12 UTC
Vėjas 6 kt iš Pietryčių
Matomumas: 10 km
Giedras dangus
Nuo 29 metu 1800 UTC
Vėjas 10 kt iš Šiaurės/Šiaurės Rytų
Matomumas: 10 km
Giedras dangus

TAF: PAUN 291139Z 2912/3012 13006KT P6SM SKC FM291800 02010KT P6SM SKC

Orai ataskaitas ir orų prognozės (METAR, TAF).

turimą stotys yra geltonos ir raudonos taškus žemėlapyje.

Perkelti pele per norėdami pamatyti stoties vardą.

Tada spustelėkite, norėdami matyti oro stebėjimo ir prognozės.

Norėdami pakeisti žemėlapį: spustelėkite ant žalios mygtukų su juodo kryžiaus žemyn,; žalią mygtuką su brūkšneliu, jei norite nutolinti; arba žalių rodyklių gretimoms žemėlapius.


METAR-TAF: